Time;durP1;ratioP1;P1;durP2;ratioP2;P2;SDS_P1;SDS_P2;PMS_P1;PMS_P2;Temp;Humidity;BMP_temperature;BMP_pressure;BME280_temperature;BME280_humidity;BME280_pressure;Samples;Min_cycle;Max_cycle;Signal;HPM_P1;HPM_P2
2022/01/02 03:47:28;;;;;;;14.65;8.30;;;5.80;99.70;;;;;;4949472;24;20293;-81
2022/01/02 03:49:55;;;;;;;18.65;8.38;;;5.80;99.80;;;;;;4842576;29;20035;-82
2022/01/02 03:52:21;;;;;;;16.08;9.20;;;5.70;99.80;;;;;;4829049;29;20341;-81
2022/01/02 03:54:47;;;;;;;17.65;8.63;;;5.70;99.90;;;;;;4803588;29;20046;-82
2022/01/02 03:57:13;;;;;;;14.65;9.02;;;5.70;99.90;;;;;;4821518;29;20040;-81
2022/01/02 03:59:39;;;;;;;13.93;7.78;;;5.70;99.90;;;;;;4818324;29;20416;-81
2022/01/02 04:02:04;;;;;;;15.35;8.13;;;5.70;99.90;;;;;;4823339;29;20057;-81
2022/01/02 04:04:30;;;;;;;16.70;8.73;;;5.70;99.90;;;;;;4803423;29;20368;-81
2022/01/02 04:06:56;;;;;;;21.60;9.95;;;5.70;99.80;;;;;;4818123;29;20105;-82
2022/01/02 04:09:22;;;;;;;16.17;9.00;;;5.70;99.90;;;;;;4804533;29;20111;-82
2022/01/02 04:11:48;;;;;;;16.05;8.65;;;5.70;99.90;;;;;;4777566;29;20050;-82
2022/01/02 04:14:14;;;;;;;16.45;8.10;;;5.70;99.90;;;;;;4806737;29;20076;-82
2022/01/02 04:16:40;;;;;;;16.10;9.17;;;5.70;99.90;;;;;;4812236;29;20042;-81
2022/01/02 04:19:07;;;;;;;16.35;8.70;;;5.70;99.90;;;;;;4818743;29;20031;-82
2022/01/02 04:21:33;;;;;;;15.93;9.15;;;5.60;99.80;;;;;;4809611;29;20040;-81
2022/01/02 04:23:59;;;;;;;17.23;8.80;;;5.60;99.70;;;;;;4816210;29;20038;-82
2022/01/02 04:26:27;;;;;;;16.90;7.65;;;5.60;99.70;;;;;;4813988;29;20106;-82
2022/01/02 04:28:53;;;;;;;16.15;9.95;;;5.60;99.70;;;;;;4835497;29;20042;-82
2022/01/02 04:31:20;;;;;;;17.17;8.30;;;5.50;99.70;;;;;;4799722;29;20045;-82
2022/01/02 04:33:46;;;;;;;15.63;8.40;;;5.50;99.80;;;;;;4841967;29;20197;-82
2022/01/02 04:36:11;;;;;;;15.43;8.55;;;5.50;99.70;;;;;;4838734;29;20041;-82
2022/01/02 04:38:38;;;;;;;15.68;9.18;;;5.50;99.70;;;;;;4823185;29;20275;-83
2022/01/02 04:41:04;;;;;;;16.98;9.02;;;5.40;99.60;;;;;;4815832;29;20048;-83
2022/01/02 04:43:30;;;;;;;17.55;9.63;;;5.40;99.80;;;;;;4809012;29;20051;-82
2022/01/02 04:45:56;;;;;;;18.23;8.73;;;5.40;99.80;;;;;;4825316;29;20098;-83
2022/01/02 04:48:23;;;;;;;;;;;5.40;99.80;;;;;;4833431;29;20241;-83
2022/01/02 04:50:50;;;;;;;15.50;8.43;;;5.30;99.80;;;;;;4808425;29;19912;-83
2022/01/02 04:53:16;;;;;;;17.03;9.63;;;5.30;99.90;;;;;;4823112;29;20267;-82
2022/01/02 04:55:43;;;;;;;16.45;8.68;;;5.30;99.90;;;;;;4822929;29;20167;-82
2022/01/02 04:58:09;;;;;;;15.87;8.70;;;5.30;99.90;;;;;;4826682;29;20088;-82
2022/01/02 05:00:37;;;;;;;15.82;8.38;;;5.30;99.90;;;;;;4819568;29;20322;-82
2022/01/02 05:03:03;;;;;;;16.37;7.93;;;5.30;99.90;;;;;;4821021;29;20030;-82
2022/01/02 05:05:29;;;;;;;16.38;9.85;;;5.30;99.90;;;;;;4836211;29;20079;-82
2022/01/02 05:07:55;;;;;;;14.07;9.05;;;5.40;99.90;;;;;;4792635;29;20109;-82
2022/01/02 05:10:21;;;;;;;14.13;8.80;;;5.30;99.90;;;;;;4829388;29;20036;-82
2022/01/02 05:12:47;;;;;;;18.05;9.13;;;5.40;99.90;;;;;;4844846;29;20030;-82
2022/01/02 05:15:15;;;;;;;15.07;9.75;;;5.40;99.90;;;;;;4806558;29;20042;-83
2022/01/02 05:17:43;;;;;;;14.02;8.93;;;5.30;99.90;;;;;;4789493;29;20349;-84
2022/01/02 05:20:09;;;;;;;14.90;9.13;;;5.30;99.90;;;;;;4814212;29;20034;-81
2022/01/02 05:22:35;;;;;;;19.38;8.63;;;5.30;99.90;;;;;;4812556;29;20348;-81
2022/01/02 05:25:03;;;;;;;16.05;9.20;;;5.30;99.90;;;;;;4823786;29;20041;-83
2022/01/02 05:27:29;;;;;;;;;;;5.30;99.90;;;;;;4839345;29;20053;-82
2022/01/02 05:29:55;;;;;;;14.73;9.27;;;5.30;99.90;;;;;;4823732;29;19920;-83
2022/01/02 05:32:21;;;;;;;19.52;9.52;;;5.30;99.90;;;;;;4790721;29;20038;-82
2022/01/02 05:34:47;;;;;;;16.83;9.70;;;5.30;99.90;;;;;;4829493;29;20050;-83
2022/01/02 05:37:12;;;;;;;14.23;9.13;;;5.40;99.90;;;;;;4803764;29;20238;-83
2022/01/02 05:39:38;;;;;;;19.20;9.13;;;5.30;99.90;;;;;;4836594;29;20283;-82
2022/01/02 05:42:05;;;;;;;15.25;8.77;;;5.30;99.90;;;;;;4794080;29;20057;-83
2022/01/02 05:44:31;;;;;;;16.67;9.35;;;5.30;99.90;;;;;;4816179;29;20035;-83
2022/01/02 05:46:58;;;;;;;20.73;9.20;;;5.30;99.90;;;;;;4826822;29;20133;-83
2022/01/02 05:49:25;;;;;;;16.90;9.70;;;5.30;99.90;;;;;;4835678;29;20334;-83
2022/01/02 05:51:51;;;;;;;19.30;10.18;;;5.20;99.90;;;;;;4820166;29;20091;-83
2022/01/02 05:54:17;;;;;;;23.30;9.80;;;5.20;99.90;;;;;;4787337;29;20031;-83
2022/01/02 05:56:44;;;;;;;24.13;8.82;;;5.20;99.90;;;;;;4808698;29;20038;-83
2022/01/02 05:59:10;;;;;;;18.30;10.98;;;5.20;99.90;;;;;;4814327;29;20290;-82
2022/01/02 06:01:37;;;;;;;17.80;10.30;;;5.20;99.90;;;;;;4804315;29;20271;-83
2022/01/02 06:04:03;;;;;;;17.77;10.00;;;5.20;99.90;;;;;;4819866;29;20066;-83
2022/01/02 06:06:29;;;;;;;16.08;10.68;;;5.20;99.90;;;;;;4821059;29;20099;-82
2022/01/02 06:08:55;;;;;;;18.98;9.40;;;5.20;99.90;;;;;;4819045;29;20031;-82
2022/01/02 06:11:21;;;;;;;14.98;10.38;;;5.20;99.90;;;;;;4798833;29;20401;-83
2022/01/02 06:13:46;;;;;;;13.88;8.77;;;5.20;99.90;;;;;;4818902;29;20050;-82
2022/01/02 06:16:13;;;;;;;15.27;9.10;;;5.20;99.90;;;;;;4819750;29;20046;-82
2022/01/02 06:18:40;;;;;;;14.43;8.23;;;5.20;99.90;;;;;;4819010;29;20030;-82
2022/01/02 06:21:06;;;;;;;17.33;8.25;;;5.20;99.90;;;;;;4818279;29;20035;-81
2022/01/02 06:23:33;;;;;;;16.17;8.15;;;5.20;99.90;;;;;;4814968;29;20022;-82
2022/01/02 06:25:59;;;;;;;15.15;8.73;;;5.20;99.90;;;;;;4835956;29;20091;-82
2022/01/02 06:28:25;;;;;;;16.23;10.97;;;5.20;99.90;;;;;;4817706;29;20038;-82
2022/01/02 06:30:53;;;;;;;12.13;7.65;;;5.20;99.90;;;;;;4821873;29;20351;-83
2022/01/02 06:33:19;;;;;;;13.15;8.60;;;5.20;99.90;;;;;;4827578;29;20052;-82
2022/01/02 06:35:45;;;;;;;14.77;8.38;;;5.20;99.90;;;;;;4830409;29;20146;-82
2022/01/02 06:38:15;;;;;;;14.35;8.35;;;5.20;99.90;;;;;;4808558;29;20042;-83
2022/01/02 06:40:43;;;;;;;15.27;8.15;;;5.10;99.90;;;;;;4792883;29;20046;-83
2022/01/02 06:43:09;;;;;;;15.00;8.25;;;5.10;99.90;;;;;;4806534;29;20038;-83
2022/01/02 06:45:36;;;;;;;15.25;9.55;;;5.10;99.90;;;;;;4802789;29;20069;-84
2022/01/02 06:48:03;;;;;;;;;;;5.10;99.90;;;;;;4792152;29;20648;-82
2022/01/02 06:50:29;;;;;;;;;;;5.00;99.90;;;;;;4819433;29;19916;-82
2022/01/02 06:52:55;;;;;;;21.48;12.23;;;5.00;99.90;;;;;;4817809;29;20033;-82
2022/01/02 06:55:20;;;;;;;22.08;14.02;;;5.00;99.90;;;;;;4811502;29;20038;-82
2022/01/02 06:57:46;;;;;;;14.77;9.77;;;5.00;99.90;;;;;;4801621;29;20047;-83
2022/01/02 07:00:14;;;;;;;19.05;11.10;;;5.00;99.90;;;;;;4794609;29;20088;-82
2022/01/02 07:02:40;;;;;;;15.10;9.38;;;5.10;99.90;;;;;;4822525;29;20340;-83
2022/01/02 07:05:07;;;;;;;16.90;10.10;;;5.10;99.90;;;;;;4806100;29;20041;-83
2022/01/02 07:07:32;;;;;;;16.48;10.48;;;5.10;99.90;;;;;;4806947;29;20361;-83
2022/01/02 07:09:58;;;;;;;14.55;8.50;;;5.10;99.90;;;;;;4802513;29;20045;-83
2022/01/02 07:12:24;;;;;;;14.48;9.63;;;5.20;99.90;;;;;;4796682;29;20051;-83
2022/01/02 07:14:50;;;;;;;18.15;11.55;;;5.10;99.90;;;;;;4822009;29;20038;-83
2022/01/02 07:17:16;;;;;;;16.10;10.35;;;5.20;99.90;;;;;;4816457;29;20114;-83
2022/01/02 07:19:42;;;;;;;16.45;9.73;;;5.10;99.90;;;;;;4790491;29;20250;-83
2022/01/02 07:22:08;;;;;;;15.57;9.77;;;5.10;99.90;;;;;;4802235;29;20365;-83
2022/01/02 07:24:34;;;;;;;11.75;8.48;;;5.10;99.90;;;;;;4804857;29;20033;-82
2022/01/02 07:27:00;;;;;;;16.30;10.02;;;5.20;99.90;;;;;;4821478;29;20375;-83
2022/01/02 07:29:27;;;;;;;15.35;9.52;;;5.20;99.90;;;;;;4820152;29;20045;-84
2022/01/02 07:31:52;;;;;;;12.45;9.15;;;5.20;99.90;;;;;;4820400;29;20037;-82
2022/01/02 07:34:18;;;;;;;16.90;10.07;;;5.30;99.90;;;;;;4835374;29;20097;-82
2022/01/02 07:36:44;;;;;;;14.02;9.75;;;5.30;99.90;;;;;;4799783;29;20136;-83
2022/01/02 07:39:12;;;;;;;19.30;10.68;;;5.40;99.90;;;;;;4810610;29;20341;-83
2022/01/02 07:41:38;;;;;;;21.65;13.13;;;5.50;99.90;;;;;;4805231;29;20031;-82
2022/01/02 07:44:04;;;;;;;24.92;14.93;;;5.50;99.90;;;;;;4812948;29;20052;-82
2022/01/02 07:46:33;;;;;;;21.10;13.95;;;5.60;99.90;;;;;;4803034;29;20376;-83
2022/01/02 07:48:59;;;;;;;18.42;11.75;;;5.60;99.90;;;;;;4806492;29;20113;-82
2022/01/02 07:51:25;;;;;;;20.27;12.68;;;5.70;99.90;;;;;;4820302;29;20035;-82
2022/01/02 07:53:51;;;;;;;19.63;12.90;;;5.70;99.90;;;;;;4830697;29;20041;-83
2022/01/02 07:56:17;;;;;;;24.88;16.35;;;5.80;99.90;;;;;;4817352;29;20343;-83
2022/01/02 07:58:43;;;;;;;15.93;11.30;;;5.80;99.90;;;;;;4814777;29;20026;-82
2022/01/02 08:01:09;;;;;;;15.57;11.43;;;5.80;99.90;;;;;;4814790;29;20271;-83
2022/01/02 08:03:35;;;;;;;17.05;12.93;;;5.90;99.90;;;;;;4804415;29;20040;-82
2022/01/02 08:06:01;;;;;;;26.63;16.88;;;5.90;99.90;;;;;;4830025;29;20042;-82
2022/01/02 08:08:27;;;;;;;63.83;20.33;;;6.00;99.90;;;;;;4803336;29;20030;-83
2022/01/02 08:10:53;;;;;;;37.38;15.40;;;5.90;99.90;;;;;;4804853;29;20046;-82
2022/01/02 08:13:18;;;;;;;116.63;23.00;;;5.90;99.90;;;;;;4788437;29;20041;-82
2022/01/02 08:15:44;;;;;;;39.35;16.52;;;6.00;99.90;;;;;;4817921;29;20270;-83
2022/01/02 08:18:13;;;;;;;42.22;16.33;;;6.10;99.90;;;;;;4800722;29;20275;-81
2022/01/02 08:20:45;;;;;;;38.22;17.90;;;6.20;99.90;;;;;;4786875;29;20062;-82
2022/01/02 08:23:12;;;;;;;23.30;15.30;;;6.40;99.90;;;;;;4816307;29;20105;-82
2022/01/02 08:25:39;;;;;;;40.60;15.75;;;6.50;99.90;;;;;;4824194;29;20046;-82
2022/01/02 08:28:05;;;;;;;30.70;14.88;;;6.70;99.90;;;;;;4817106;29;20030;-81
2022/01/02 08:30:31;;;;;;;25.70;15.20;;;6.80;99.90;;;;;;4831232;29;20050;-81
2022/01/02 08:32:57;;;;;;;26.30;17.40;;;7.00;99.90;;;;;;4803310;29;20023;-82
2022/01/02 08:35:23;;;;;;;21.83;13.45;;;7.10;99.90;;;;;;4831024;29;20146;-82
2022/01/02 08:37:48;;;;;;;25.52;15.75;;;7.10;99.90;;;;;;4830327;29;20034;-83
2022/01/02 08:40:14;;;;;;;27.50;15.88;;;7.20;99.90;;;;;;4814038;29;20463;-83
2022/01/02 08:42:40;;;;;;;19.67;13.73;;;7.20;99.90;;;;;;4785469;29;20099;-83
2022/01/02 08:45:07;;;;;;;20.13;13.68;;;7.20;99.90;;;;;;4784439;29;20325;-83
2022/01/02 08:47:33;;;;;;;22.02;14.25;;;7.40;99.90;;;;;;4823265;29;20406;-83
2022/01/02 08:49:59;;;;;;;21.17;14.63;;;7.40;99.90;;;;;;4816857;29;20034;-82
2022/01/02 08:52:25;;;;;;;20.95;14.55;;;7.50;99.90;;;;;;4829694;29;20026;-83
2022/01/02 08:54:51;;;;;;;18.77;12.77;;;7.60;99.90;;;;;;4815444;29;20042;-83
2022/01/02 08:57:17;;;;;;;19.95;12.48;;;7.70;99.90;;;;;;4815470;29;20154;-83
2022/01/02 08:59:43;;;;;;;22.83;14.73;;;7.90;99.90;;;;;;4832053;29;20038;-82
2022/01/02 09:02:09;;;;;;;20.60;13.85;;;7.90;99.90;;;;;;4801222;29;20038;-82
2022/01/02 09:04:35;;;;;;;18.40;12.23;;;7.80;99.90;;;;;;4817490;29;20097;-83
2022/01/02 09:07:01;;;;;;;18.92;12.35;;;7.90;99.90;;;;;;4818994;29;20043;-83
2022/01/02 09:09:28;;;;;;;14.90;11.17;;;7.90;99.90;;;;;;4818859;29;20043;-81
2022/01/02 09:11:54;;;;;;;18.48;12.75;;;7.90;99.90;;;;;;4818840;29;20287;-81
2022/01/02 09:14:20;;;;;;;17.95;12.38;;;7.90;99.90;;;;;;4815829;29;20038;-83
2022/01/02 09:16:46;;;;;;;17.73;12.63;;;8.00;99.90;;;;;;4823388;29;20030;-81
2022/01/02 09:19:13;;;;;;;19.73;12.77;;;8.10;99.90;;;;;;4819435;29;20050;-81
2022/01/02 09:21:39;;;;;;;18.85;13.23;;;8.10;99.90;;;;;;4801082;29;20031;-82
2022/01/02 09:24:06;;;;;;;23.63;15.52;;;8.20;99.90;;;;;;4815268;29;20038;-82
2022/01/02 09:26:32;;;;;;;23.25;16.00;;;8.20;99.90;;;;;;4816674;29;20070;-82
2022/01/02 09:28:57;;;;;;;19.88;13.85;;;8.20;99.90;;;;;;4830924;29;20070;-82
2022/01/02 09:31:24;;;;;;;24.95;13.85;;;8.20;99.90;;;;;;4811299;29;20352;-83
2022/01/02 09:33:50;;;;;;;21.27;14.38;;;8.20;99.90;;;;;;4803983;29;20125;-83
2022/01/02 09:36:17;;;;;;;21.83;14.20;;;8.10;99.90;;;;;;4820831;29;20083;-82
2022/01/02 09:38:43;;;;;;;21.40;14.75;;;8.20;99.90;;;;;;4837146;29;20038;-81
2022/01/02 09:41:09;;;;;;;24.77;13.90;;;8.30;99.90;;;;;;4806320;29;20041;-82
2022/01/02 09:43:35;;;;;;;20.42;13.90;;;8.30;99.90;;;;;;4821403;29;20023;-82
2022/01/02 09:46:03;;;;;;;18.05;13.25;;;8.30;99.90;;;;;;4804986;29;20038;-82
2022/01/02 09:48:30;;;;;;;17.60;11.52;;;8.30;99.90;;;;;;4825408;29;20053;-82
2022/01/02 09:50:59;;;;;;;;;;;8.30;99.90;;;;;;4807399;29;20030;-83
2022/01/02 09:53:25;;;;;;;15.32;10.65;;;8.30;99.90;;;;;;4826436;29;19955;-82
2022/01/02 09:55:52;;;;;;;14.27;10.63;;;8.40;99.90;;;;;;4795305;29;20042;-82
2022/01/02 09:58:17;;;;;;;16.13;10.93;;;8.50;99.90;;;;;;4818657;29;20067;-82
2022/01/02 10:00:46;;;;;;;16.48;11.10;;;8.50;99.90;;;;;;4804742;29;20042;-82
2022/01/02 10:03:13;;;;;;;17.73;12.27;;;8.60;99.90;;;;;;4834577;29;20038;-82
2022/01/02 10:05:57;;;;;;;19.00;11.45;;;8.60;99.90;;;;;;4819951;29;20098;-82
2022/01/02 10:08:27;;;;;;;14.93;10.75;;;8.70;99.90;;;;;;4826035;29;20045;-82
2022/01/02 10:11:16;;;;;;;23.08;10.68;;;8.90;99.90;;;;;;4820355;29;20367;-82
2022/01/02 10:14:01;;;;;;;14.20;9.77;;;8.90;99.90;;;;;;4831687;29;20042;-82
2022/01/02 10:16:37;;;;;;;17.63;10.13;;;9.00;99.90;;;;;;4818731;29;20031;-82
2022/01/02 10:19:22;;;;;;;14.52;9.02;;;9.10;99.90;;;;;;4830449;29;20106;-82
2022/01/02 10:22:05;;;;;;;12.45;8.65;;;9.20;99.90;;;;;;4814182;29;20338;-83
2022/01/02 10:24:37;;;;;;;12.02;8.95;;;9.30;99.90;;;;;;4824779;29;20022;-82
2022/01/02 10:27:09;;;;;;;12.27;7.60;;;9.40;99.80;;;;;;4832623;29;20034;-82
2022/01/02 10:29:39;;;;;;;13.20;9.00;;;9.60;99.60;;;;;;4829849;29;20030;-84
2022/01/02 10:32:41;;;;;;;17.23;10.30;;;9.60;99.40;;;;;;4800419;29;20251;-83
2022/01/02 10:35:23;;;;;;;15.15;8.60;;;9.60;99.30;;;;;;4829349;29;20030;-82
2022/01/02 10:37:53;;;;;;;22.17;8.50;;;9.60;99.50;;;;;;4811740;29;20042;-82
2022/01/02 10:40:50;;;;;;;13.18;9.75;;;9.70;99.50;;;;;;4828049;29;20041;-83
2022/01/02 10:43:18;;;;;;;;;;;9.80;99.50;;;;;;4797373;29;20094;-82
2022/01/02 10:45:47;;;;;;;14.70;8.60;;;10.00;98.90;;;;;;4797752;29;19998;-82
2022/01/02 10:48:15;;;;;;;13.77;9.38;;;10.00;98.50;;;;;;4779129;29;20278;-82
2022/01/02 10:50:59;;;;;;;13.95;9.02;;;10.10;98.40;;;;;;4782224;29;20038;-82
2022/01/02 10:53:25;;;;;;;14.13;9.27;;;10.20;97.90;;;;;;4798172;29;20059;-82
2022/01/02 10:55:52;;;;;;;14.45;9.32;;;10.30;98.00;;;;;;4794926;29;20036;-83
2022/01/02 10:58:18;;;;;;;16.73;9.65;;;10.30;97.90;;;;;;4778870;29;20116;-83
2022/01/02 11:00:45;;;;;;;13.07;8.23;;;10.40;97.80;;;;;;4783956;29;20299;-83
2022/01/02 11:03:12;;;;;;;13.65;9.10;;;10.50;97.30;;;;;;4798911;29;20030;-83
2022/01/02 11:05:41;;;;;;;12.77;8.93;;;10.40;97.30;;;;;;4783002;29;20047;-84
2022/01/02 11:08:08;;;;;;;15.27;7.95;;;10.50;97.60;;;;;;4791129;29;20064;-83
2022/01/02 11:10:37;;;;;;;11.93;7.93;;;10.50;97.20;;;;;;4777590;29;20031;-84
2022/01/02 11:13:04;;;;;;;13.25;7.35;;;10.50;97.30;;;;;;4767918;29;20039;-84
2022/01/02 11:15:30;;;;;;;;;;;10.50;97.50;;;;;;4784002;29;20108;-83
2022/01/02 11:17:56;;;;;;;12.37;7.87;;;10.50;97.50;;;;;;4766674;29;19941;-83
2022/01/02 11:20:31;;;;;;;13.07;7.68;;;10.60;97.40;;;;;;4801678;29;20043;-83
2022/01/02 11:23:15;;;;;;;10.15;7.53;;;10.70;97.20;;;;;;4830089;29;20015;-83
2022/01/02 11:25:50;;;;;;;13.50;7.32;;;10.70;97.00;;;;;;4830624;29;20101;-83
2022/01/02 11:28:25;;;;;;;14.45;6.88;;;10.70;97.20;;;;;;4834958;29;20042;-83
2022/01/02 11:30:52;;;;;;;10.40;7.28;;;10.70;97.20;;;;;;4824887;29;20030;-83
2022/01/02 11:33:25;;;;;;;11.85;6.75;;;10.80;97.30;;;;;;4831987;29;20330;-82
2022/01/02 11:35:52;;;;;;;12.85;7.43;;;10.80;97.10;;;;;;4823531;29;20117;-82
2022/01/02 11:38:19;;;;;;;11.10;6.43;;;10.90;97.10;;;;;;4803101;29;20042;-82
2022/01/02 11:40:56;;;;;;;10.82;6.60;;;11.00;96.90;;;;;;4815731;29;20064;-82
2022/01/02 11:43:49;;;;;;;12.20;7.28;;;11.00;96.40;;;;;;4819937;29;20367;-83
2022/01/02 11:46:29;;;;;;;10.70;7.00;;;11.00;96.50;;;;;;4816987;29;20054;-83
2022/01/02 11:49:04;;;;;;;11.60;7.18;;;11.00;96.50;;;;;;4818864;29;20042;-82
2022/01/02 11:51:48;;;;;;;12.90;7.45;;;11.10;96.60;;;;;;4833263;29;20045;-83
2022/01/02 11:54:32;;;;;;;12.00;7.00;;;11.10;96.60;;;;;;4824042;29;20097;-83
2022/01/02 11:57:10;;;;;;;12.35;7.63;;;11.20;96.60;;;;;;4827314;29;20054;-83
2022/01/02 11:59:39;;;;;;;10.63;6.72;;;11.30;96.60;;;;;;4823617;29;20046;-83
2022/01/02 12:02:18;;;;;;;12.05;7.30;;;11.30;96.60;;;;;;4834084;29;20034;-83
2022/01/02 12:05:14;;;;;;;12.20;7.10;;;11.30;96.60;;;;;;4820156;29;20056;-84
2022/01/02 12:07:42;;;;;;;13.57;7.97;;;11.50;96.20;;;;;;4817469;29;20062;-83
2022/01/02 12:10:16;;;;;;;12.68;6.95;;;11.50;95.80;;;;;;4818174;29;20033;-83
2022/01/02 12:12:57;;;;;;;12.02;7.03;;;11.40;95.80;;;;;;4812022;29;20042;-82
2022/01/02 12:15:32;;;;;;;12.57;7.75;;;11.30;96.00;;;;;;4826185;29;20083;-83
2022/01/02 12:18:11;;;;;;;13.93;7.15;;;11.40;96.00;;;;;;4822898;29;20070;-82
2022/01/02 12:21:06;;;;;;;14.77;7.03;;;11.50;95.30;;;;;;4834215;29;20038;-83
2022/01/02 12:23:42;;;;;;;13.07;7.70;;;11.60;95.20;;;;;;4828939;29;20399;-83
2022/01/02 12:26:18;;;;;;;12.93;7.50;;;11.50;95.20;;;;;;4834130;29;20027;-82
2022/01/02 12:28:59;;;;;;;12.20;6.93;;;11.50;95.30;;;;;;4837386;29;20033;-83
2022/01/02 12:31:34;;;;;;;11.00;7.32;;;11.50;95.10;;;;;;4833044;29;20035;-84
2022/01/02 12:34:20;;;;;;;13.57;7.18;;;11.60;95.40;;;;;;4842905;29;20038;-83
2022/01/02 12:36:51;;;;;;;10.15;6.20;;;11.50;95.50;;;;;;4820356;29;20035;-83
2022/01/02 12:39:29;;;;;;;11.02;6.65;;;11.50;95.60;;;;;;4833116;29;20325;-83
2022/01/02 12:42:02;;;;;;;10.55;6.68;;;11.50;95.50;;;;;;4826623;29;20034;-82
2022/01/02 12:44:30;;;;;;;12.90;6.82;;;11.50;95.40;;;;;;4816918;29;20319;-82
2022/01/02 12:46:58;;;;;;;11.82;6.68;;;11.50;95.40;;;;;;4814842;29;20234;-82
2022/01/02 12:49:49;;;;;;;10.02;6.13;;;11.60;95.60;;;;;;4815904;29;20361;-82
2022/01/02 12:52:18;;;;;;;10.90;7.03;;;11.70;95.60;;;;;;4810340;29;20075;-83
2022/01/02 12:54:47;;;;;;;13.30;7.20;;;11.80;95.60;;;;;;4816684;29;20065;-83
2022/01/02 12:57:15;;;;;;;11.82;8.00;;;11.80;95.30;;;;;;4828997;29;20545;-83
2022/01/02 12:59:46;;;;;;;17.58;8.60;;;11.80;95.40;;;;;;4817853;29;20244;-82
2022/01/02 13:02:22;;;;;;;15.55;10.73;;;11.80;95.70;;;;;;4832577;29;20101;-82
2022/01/02 13:04:50;;;;;;;16.80;11.33;;;11.90;95.70;;;;;;4810858;29;20353;-82
2022/01/02 13:07:23;;;;;;;16.55;9.48;;;12.00;95.40;;;;;;4828979;29;20578;-82
2022/01/02 13:09:58;;;;;;;14.50;9.10;;;12.00;95.20;;;;;;4803364;29;20046;-82
2022/01/02 13:12:31;;;;;;;14.55;7.35;;;12.00;95.00;;;;;;4831757;29;20080;-82
2022/01/02 13:14:58;;;;;;;13.73;8.98;;;12.00;95.10;;;;;;4829585;29;20385;-81
2022/01/02 13:17:29;;;;;;;17.23;8.90;;;12.00;95.20;;;;;;4806899;29;20358;-82
2022/01/02 13:20:38;;;;;;;11.60;7.68;;;12.00;95.00;;;;;;4832884;29;20098;-82
2022/01/02 13:23:04;;;;;;;10.40;7.10;;;12.10;95.00;;;;;;4794863;30;20059;-83
2022/01/02 13:25:38;;;;;;;11.85;7.13;;;12.10;95.00;;;;;;4764416;30;20111;-82
2022/01/02 13:28:12;;;;;;;12.70;7.60;;;12.10;94.70;;;;;;4777261;30;20039;-82
2022/01/02 13:30:50;;;;;;;14.60;7.32;;;12.10;94.80;;;;;;4766099;30;20059;-82
2022/01/02 13:33:28;;;;;;;13.40;7.75;;;12.10;94.70;;;;;;4764847;30;20054;-82
2022/01/02 13:35:58;;;;;;;15.40;8.95;;;12.10;94.70;;;;;;4797455;30;20043;-84
2022/01/02 13:38:24;;;;;;;17.30;8.02;;;12.10;94.70;;;;;;4761035;30;20355;-84
2022/01/02 13:40:51;;;;;;;13.52;7.72;;;12.00;94.50;;;;;;4764613;30;20112;-85
2022/01/02 13:43:21;;;;;;;13.10;7.57;;;12.00;94.70;;;;;;4795598;30;20426;-85
2022/01/02 13:45:47;;;;;;;15.50;8.52;;;12.10;94.80;;;;;;4770870;30;20111;-84
2022/01/02 13:48:17;;;;;;;12.43;7.75;;;12.10;94.90;;;;;;4766704;30;20054;-82
2022/01/02 13:50:44;;;;;;;13.48;8.07;;;12.00;94.70;;;;;;4762258;30;20070;-83
2022/01/02 13:53:21;;;;;;;11.48;7.63;;;12.00;94.80;;;;;;4786801;30;20163;-83
2022/01/02 13:55:50;;;;;;;18.25;8.02;;;12.00;94.90;;;;;;4796997;30;20150;-83
2022/01/02 13:58:23;;;;;;;17.77;8.23;;;11.90;95.10;;;;;;4780246;30;20070;-82
2022/01/02 14:00:54;;;;;;;15.35;8.10;;;11.80;95.20;;;;;;4815772;29;20074;-83
2022/01/02 14:03:38;;;;;;;15.40;8.70;;;11.80;95.20;;;;;;4822192;29;20113;-82
2022/01/02 14:06:08;;;;;;;14.38;8.48;;;11.80;95.50;;;;;;4827078;29;20042;-83
2022/01/02 14:08:45;;;;;;;14.65;8.00;;;11.70;95.50;;;;;;4830920;29;20078;-82
2022/01/02 14:11:19;;;;;;;15.02;8.48;;;11.70;95.60;;;;;;4829775;29;20042;-82
2022/01/02 14:13:45;;;;;;;13.23;8.40;;;11.70;95.50;;;;;;4818224;29;20054;-82
2022/01/02 14:16:32;;;;;;;13.43;8.65;;;11.70;95.60;;;;;;4820084;29;20215;-83
2022/01/02 14:18:58;;;;;;;14.48;8.75;;;11.70;95.60;;;;;;4820326;29;20271;-84
2022/01/02 14:21:24;;;;;;;13.63;8.10;;;11.70;95.70;;;;;;4816699;29;20034;-84
2022/01/02 14:23:50;;;;;;;16.55;8.07;;;11.60;95.70;;;;;;4814132;29;20054;-84
2022/01/02 14:26:16;;;;;;;17.20;8.20;;;11.50;95.60;;;;;;4801442;29;20038;-84
2022/01/02 14:28:42;;;;;;;15.95;9.50;;;11.50;95.70;;;;;;4832262;29;20055;-83
2022/01/02 14:31:09;;;;;;;17.38;10.40;;;11.40;95.70;;;;;;4813381;29;20042;-84
2022/01/02 14:33:35;;;;;;;15.43;10.30;;;11.40;95.80;;;;;;4807354;29;20333;-84
2022/01/02 14:36:01;;;;;;;19.27;10.50;;;11.30;96.00;;;;;;4831552;29;20383;-83
2022/01/02 14:38:27;;;;;;;21.38;11.82;;;11.20;96.10;;;;;;4823591;29;20170;-83
2022/01/02 14:40:54;;;;;;;18.25;10.15;;;11.20;96.30;;;;;;4818272;29;20157;-83
2022/01/02 14:43:20;;;;;;;22.88;11.95;;;11.10;96.50;;;;;;4816753;29;20062;-83
2022/01/02 14:45:46;;;;;;;22.70;10.18;;;11.10;96.30;;;;;;4788538;29;20051;-83
2022/01/02 14:48:12;;;;;;;18.00;10.50;;;11.00;96.40;;;;;;4821962;29;20286;-83
2022/01/02 14:50:38;;;;;;;16.25;9.52;;;11.00;96.40;;;;;;4817451;29;20243;-83
2022/01/02 14:53:04;;;;;;;15.40;9.52;;;10.90;96.60;;;;;;4797480;29;20117;-83
2022/01/02 14:55:29;;;;;;;18.63;11.63;;;10.80;96.60;;;;;;4818319;29;20046;-83
2022/01/02 14:57:55;;;;;;;18.48;10.38;;;10.70;96.80;;;;;;4800524;29;20117;-83
2022/01/02 15:00:26;;;;;;;20.27;10.98;;;10.70;96.90;;;;;;4785344;29;20042;-83
2022/01/02 15:02:52;;;;;;;16.17;9.20;;;10.60;97.00;;;;;;4819574;29;20051;-84
2022/01/02 15:05:18;;;;;;;19.83;11.02;;;10.60;97.00;;;;;;4802509;29;20369;-83
2022/01/02 15:07:44;;;;;;;17.13;10.80;;;10.50;97.20;;;;;;4818819;29;20055;-83
2022/01/02 15:10:13;;;;;;;26.23;13.63;;;10.40;97.50;;;;;;4829282;29;20042;-83
2022/01/02 15:12:39;;;;;;;19.05;10.77;;;10.30;97.50;;;;;;4817775;29;20042;-83
2022/01/02 15:15:08;;;;;;;23.70;11.97;;;10.30;97.70;;;;;;4828967;29;20038;-83
2022/01/02 15:17:33;;;;;;;21.85;11.35;;;10.20;97.70;;;;;;4817664;29;20291;-83
2022/01/02 15:19:59;;;;;;;23.23;12.38;;;10.10;97.70;;;;;;4834934;29;20120;-83
2022/01/02 15:22:25;;;;;;;23.77;12.05;;;10.00;97.70;;;;;;4822016;29;20042;-83
2022/01/02 15:24:51;;;;;;;23.40;12.15;;;9.90;97.80;;;;;;4816354;29;20038;-83
2022/01/02 15:27:17;;;;;;;25.20;13.25;;;9.80;97.90;;;;;;4840379;29;20064;-83
2022/01/02 15:29:44;;;;;;;21.13;13.55;;;9.80;98.10;;;;;;4835855;29;20050;-84
2022/01/02 15:32:11;;;;;;;24.98;14.55;;;9.70;98.10;;;;;;4823762;29;20134;-83
2022/01/02 15:34:39;;;;;;;26.08;13.50;;;9.60;98.20;;;;;;4818261;29;20038;-83
2022/01/02 15:37:06;;;;;;;31.88;14.70;;;9.60;98.30;;;;;;4834238;29;20105;-83
2022/01/02 15:39:32;;;;;;;30.98;16.65;;;9.50;98.30;;;;;;4818534;29;20045;-83
2022/01/02 15:41:58;;;;;;;30.58;15.75;;;9.50;98.50;;;;;;4849488;29;20042;-84
2022/01/02 15:44:24;;;;;;;26.30;15.00;;;9.40;98.50;;;;;;4820169;29;20034;-84
2022/01/02 15:46:53;;;;;;;30.58;16.10;;;9.30;98.50;;;;;;4803953;29;20595;-84
2022/01/02 15:49:20;;;;;;;32.38;17.08;;;9.30;98.50;;;;;;4799658;29;20043;-84
2022/01/02 15:51:46;;;;;;;;;;;9.20;98.60;;;;;;4815320;29;20038;-84
2022/01/02 15:54:12;;;;;;;42.77;18.80;;;9.10;98.80;;;;;;4831065;29;20146;-83
2022/01/02 15:56:39;;;;;;;45.00;18.52;;;9.00;98.80;;;;;;4828485;29;20030;-84
2022/01/02 15:59:05;;;;;;;44.67;21.00;;;9.00;98.90;;;;;;4829600;29;20039;-83
2022/01/02 16:01:31;;;;;;;39.22;20.77;;;9.00;98.90;;;;;;4810458;29;20291;-83
2022/01/02 16:03:57;;;;;;;40.08;18.08;;;9.00;99.40;;;;;;4814564;29;20230;-83
2022/01/02 16:06:23;;;;;;;39.15;19.02;;;8.90;99.40;;;;;;4800446;29;20034;-84
2022/01/02 16:08:49;;;;;;;38.83;19.13;;;8.90;99.40;;;;;;4802020;29;20038;-84
2022/01/02 16:11:19;;;;;;;36.70;19.17;;;8.90;99.40;;;;;;4800913;29;20038;-84
2022/01/02 16:13:46;;;;;;;41.80;19.83;;;8.90;99.60;;;;;;4831322;29;20234;-83
2022/01/02 16:16:13;;;;;;;39.70;19.27;;;9.00;99.70;;;;;;4820812;29;20036;-83
2022/01/02 16:18:39;;;;;;;43.90;18.77;;;9.00;99.90;;;;;;4826818;29;20034;-83
2022/01/02 16:21:05;;;;;;;36.35;19.02;;;9.00;99.90;;;;;;4833544;29;20069;-83
2022/01/02 16:23:31;;;;;;;34.00;18.88;;;9.10;99.90;;;;;;4832125;29;20027;-83
2022/01/02 16:25:57;;;;;;;35.63;17.73;;;9.10;99.90;;;;;;4816678;29;20238;-83
2022/01/02 16:28:22;;;;;;;38.10;19.70;;;9.10;99.90;;;;;;4816585;29;20074;-83
2022/01/02 16:30:48;;;;;;;35.55;19.13;;;9.10;99.90;;;;;;4815261;29;20061;-83
2022/01/02 16:33:16;;;;;;;31.75;18.55;;;9.20;99.90;;;;;;4813695;29;20039;-84
2022/01/02 16:35:43;;;;;;;33.63;18.60;;;9.20;99.90;;;;;;4813239;29;20069;-83